Terminal Aerodrome Forecast
Issued by NWS

Home | Current Version | Previous Version | Text Only | Print | Product List | Glossary On
Versions: 1 2 3 4 5 6 7 8 9 10 11 12 13 14 15 16 17 18 19 20
000
FTUS43 KGRB 202339
TAFAUW
TAF
KAUW 202339Z 2100/2124 13012KT 2SM RA SCT015 OVC024 WS020/20045KT
     FM210300 18008KT 4SM -RA BR OVC006 WS020/22045KT
     FM210600 22009KT 3SM BR BKN005
     FM210900 24006KT 5SM BR BKN004
     FM211300 29005KT 5SM BR BKN007
     FM211600 28009G15KT P6SM SCT250=

USA.gov is the U.S. government's official web portal to all federal, state and local government web resources and services.